createdAt,value
2024-02-28T00:01:07.163Z,0.09
2024-02-28T00:03:35.706Z,0.10
2024-02-28T00:06:03.619Z,0.09
2024-02-28T00:08:32.817Z,0.07
2024-02-28T00:11:00.960Z,0.05
2024-02-28T00:13:28.791Z,0.04
2024-02-28T00:15:56.879Z,0.00
2024-02-28T00:18:24.830Z,-0.01
2024-02-28T00:20:56.854Z,-0.03
2024-02-28T00:23:24.705Z,-0.04
2024-02-28T00:25:54.037Z,-0.05
2024-02-28T00:28:23.051Z,-0.07
2024-02-28T00:30:51.067Z,-0.10
2024-02-28T00:33:18.950Z,-0.12
2024-02-28T00:35:46.830Z,-0.15
2024-02-28T00:38:14.770Z,-0.17
2024-02-28T00:40:42.663Z,-0.19
2024-02-28T00:43:11.851Z,-0.19
2024-02-28T00:45:39.934Z,-0.25
2024-02-28T00:48:08.962Z,-0.26
2024-02-28T00:50:36.907Z,-0.27
2024-02-28T00:53:05.102Z,-0.31
2024-02-28T00:55:32.931Z,-0.30
2024-02-28T00:58:00.792Z,-0.32
2024-02-28T01:00:30.047Z,-0.32
2024-02-28T01:02:57.974Z,-0.35
2024-02-28T01:05:27.210Z,-0.35
2024-02-28T01:07:55.405Z,-0.37
2024-02-28T01:10:23.526Z,-0.37
2024-02-28T01:12:51.555Z,-0.39
2024-02-28T01:15:20.121Z,-0.39
2024-02-28T01:17:49.405Z,-0.42
2024-02-28T01:20:17.597Z,-0.42
2024-02-28T01:22:46.023Z,-0.43
2024-02-28T01:25:14.076Z,-0.43
2024-02-28T01:27:41.938Z,-0.45
2024-02-28T01:30:10.421Z,-0.44
2024-02-28T01:32:38.358Z,-0.44
2024-02-28T01:35:10.512Z,-0.45
2024-02-28T01:37:38.445Z,-0.45
2024-02-28T01:40:07.461Z,-0.46
2024-02-28T01:42:35.368Z,-0.46
2024-02-28T01:45:03.317Z,-0.47
2024-02-28T01:47:31.665Z,-0.49
2024-02-28T01:50:00.167Z,-0.51
2024-02-28T01:52:29.435Z,-0.51
2024-02-28T01:54:57.704Z,-0.56
2024-02-28T01:57:25.688Z,-0.56
2024-02-28T01:59:55.791Z,-0.58
2024-02-28T02:02:23.848Z,-0.58
2024-02-28T02:04:54.055Z,-0.60
2024-02-28T02:07:22.055Z,-0.60
2024-02-28T02:09:51.387Z,-0.60
2024-02-28T02:12:19.433Z,-0.58
2024-02-28T02:14:49.997Z,-0.59
2024-02-28T02:17:19.577Z,-0.62
2024-02-28T02:19:47.724Z,-0.65
2024-02-28T02:22:16.574Z,-0.64
2024-02-28T02:24:46.013Z,-0.65
2024-02-28T02:27:13.950Z,-0.66
2024-02-28T02:29:41.767Z,-0.69
2024-02-28T02:32:09.677Z,-0.70
2024-02-28T02:34:37.645Z,-0.69
2024-02-28T02:37:06.145Z,-0.68
2024-02-28T02:39:34.144Z,-0.70
2024-02-28T02:42:03.458Z,-0.70
2024-02-28T02:44:31.906Z,-0.74
2024-02-28T02:46:59.704Z,-0.69
2024-02-28T02:49:27.542Z,-0.69
2024-02-28T02:51:55.486Z,-0.69
2024-02-28T02:54:23.329Z,-0.66
2024-02-28T02:56:51.212Z,-0.65
2024-02-28T02:59:22.605Z,-0.67
2024-02-28T03:01:52.238Z,-0.65
2024-02-28T03:04:20.108Z,-0.66
2024-02-28T03:06:48.039Z,-0.67
2024-02-28T03:09:16.062Z,-0.69
2024-02-28T03:11:44.207Z,-0.69
2024-02-28T03:14:12.323Z,-0.67
2024-02-28T03:16:44.423Z,-0.66
2024-02-28T03:19:12.944Z,-0.68
2024-02-28T03:21:40.888Z,-0.61
2024-02-28T03:24:09.033Z,-0.58
2024-02-28T03:26:36.851Z,-0.56
2024-02-28T03:29:05.095Z,-0.56
2024-02-28T03:31:33.045Z,-0.56
2024-02-28T03:34:02.605Z,-0.55
2024-02-28T03:36:31.231Z,-0.55
2024-02-28T03:38:59.128Z,-0.56
2024-02-28T03:41:26.972Z,-0.57
2024-02-28T03:43:55.124Z,-0.56
2024-02-28T03:46:23.609Z,-0.54
2024-02-28T03:48:51.617Z,-0.54
2024-02-28T03:51:20.897Z,-0.53
2024-02-28T03:53:48.967Z,-0.54
2024-02-28T03:56:26.119Z,-0.56
2024-02-28T03:58:54.825Z,-0.57
2024-02-28T04:01:22.761Z,-0.59
2024-02-28T04:03:50.813Z,-0.59
2024-02-28T04:06:20.240Z,-0.59
2024-02-28T04:08:48.628Z,-0.58
2024-02-28T04:11:16.500Z,-0.54
2024-02-28T04:13:44.398Z,-0.52
2024-02-28T04:16:12.301Z,-0.50
2024-02-28T04:18:40.237Z,-0.45
2024-02-28T04:21:08.025Z,-0.43
2024-02-28T04:23:39.267Z,-0.41
2024-02-28T04:26:07.106Z,-0.36
2024-02-28T04:28:34.914Z,-0.34
2024-02-28T04:31:02.798Z,-0.30
2024-02-28T04:33:30.697Z,-0.30
2024-02-28T04:35:59.022Z,-0.28
2024-02-28T04:38:26.883Z,-0.26
2024-02-28T04:40:56.180Z,-0.22
2024-02-28T04:43:23.995Z,-0.24
2024-02-28T04:45:51.904Z,-0.23
2024-02-28T04:48:19.795Z,-0.16
2024-02-28T04:50:47.680Z,-0.15
2024-02-28T04:53:15.531Z,-0.13
2024-02-28T04:55:43.329Z,-0.10
2024-02-28T04:58:12.594Z,-0.09
2024-02-28T05:00:40.749Z,-0.07
2024-02-28T05:03:09.061Z,-0.04
2024-02-28T05:05:36.913Z,-0.01
2024-02-28T05:08:05.653Z,0.02
2024-02-28T05:10:35.251Z,0.06
2024-02-28T05:13:05.216Z,0.11
2024-02-28T05:15:34.527Z,0.18
2024-02-28T05:18:02.656Z,0.28
2024-02-28T05:20:30.503Z,0.41
2024-02-28T05:22:58.345Z,0.49
2024-02-28T05:25:26.101Z,0.61
2024-02-28T05:27:53.982Z,0.73
2024-02-28T05:30:22.397Z,0.82
2024-02-28T05:32:52.075Z,0.98
2024-02-28T05:35:19.035Z,1.11
2024-02-28T05:37:47.738Z,1.23
2024-02-28T05:40:15.601Z,1.35
2024-02-28T05:42:44.189Z,1.49
2024-02-28T05:45:13.949Z,1.62
2024-02-28T05:47:41.886Z,1.78
2024-02-28T05:50:12.268Z,1.90
2024-02-28T05:52:40.204Z,2.02
2024-02-28T05:55:08.714Z,2.12
2024-02-28T05:57:36.550Z,2.23
2024-02-28T06:00:11.037Z,2.32
2024-02-28T06:02:43.017Z,2.42
2024-02-28T06:05:12.242Z,2.52
2024-02-28T06:07:40.039Z,2.53
2024-02-28T06:10:09.268Z,2.57
2024-02-28T06:12:37.091Z,2.64
2024-02-28T06:15:07.905Z,2.70
2024-02-28T06:17:36.001Z,2.75
2024-02-28T06:20:04.654Z,2.79
2024-02-28T06:22:33.854Z,2.82
2024-02-28T06:25:01.716Z,2.86
2024-02-28T06:27:29.788Z,2.89
2024-02-28T06:29:57.543Z,2.91
2024-02-28T06:32:26.128Z,2.96
2024-02-28T06:34:54.650Z,2.98
2024-02-28T06:37:22.441Z,3.01
2024-02-28T06:39:51.656Z,3.04
2024-02-28T06:42:19.555Z,3.09
2024-02-28T06:44:47.537Z,3.14
2024-02-28T06:47:15.539Z,3.20
2024-02-28T06:49:43.799Z,3.23
2024-02-28T06:52:11.774Z,3.28
2024-02-28T06:54:39.694Z,3.35
2024-02-28T06:57:08.994Z,3.34
2024-02-28T06:59:37.022Z,3.40
2024-02-28T07:02:05.939Z,3.44
2024-02-28T07:04:33.771Z,3.44
2024-02-28T07:07:02.359Z,3.43
2024-02-28T07:09:32.319Z,3.47
2024-02-28T07:12:00.219Z,3.49
2024-02-28T07:14:29.371Z,3.58
2024-02-28T07:16:57.503Z,3.65
2024-02-28T07:19:25.496Z,3.64
2024-02-28T07:21:53.355Z,3.70
2024-02-28T07:24:21.239Z,3.72
2024-02-28T07:26:50.279Z,3.83
2024-02-28T07:29:18.922Z,3.87
2024-02-28T07:31:48.102Z,3.89
2024-02-28T07:34:16.009Z,3.89
2024-02-28T07:36:44.718Z,4.07
2024-02-28T07:39:13.944Z,4.16
2024-02-28T07:41:42.707Z,4.26
2024-02-28T07:44:11.895Z,4.36
2024-02-28T07:46:39.812Z,4.45
2024-02-28T07:49:09.150Z,4.53
2024-02-28T07:51:37.051Z,4.65
2024-02-28T07:54:05.208Z,4.73
2024-02-28T07:56:33.095Z,4.78
2024-02-28T07:59:00.964Z,4.88
2024-02-28T08:01:28.967Z,5.00
2024-02-28T08:03:57.134Z,5.00
2024-02-28T08:06:26.744Z,5.00
2024-02-28T08:08:54.612Z,5.11
2024-02-28T08:11:22.586Z,5.17
2024-02-28T08:13:50.425Z,5.19
2024-02-28T08:16:18.459Z,5.16
2024-02-28T08:18:46.497Z,5.16
2024-02-28T08:21:14.314Z,5.13
2024-02-28T08:23:43.597Z,5.18
2024-02-28T08:26:11.630Z,5.21
2024-02-28T08:28:40.143Z,5.22
2024-02-28T08:31:08.198Z,5.25
2024-02-28T08:33:36.180Z,5.23
2024-02-28T08:36:04.444Z,5.27
2024-02-28T08:38:32.230Z,5.30
2024-02-28T08:41:01.828Z,5.32
2024-02-28T08:43:29.736Z,5.34
2024-02-28T08:45:58.194Z,5.39
2024-02-28T08:48:26.127Z,5.46
2024-02-28T08:50:54.128Z,5.50
2024-02-28T08:53:21.934Z,5.58
2024-02-28T08:55:50.737Z,5.63
2024-02-28T08:58:20.225Z,5.68
2024-02-28T09:00:48.174Z,5.64
2024-02-28T09:03:16.494Z,5.67
2024-02-28T09:05:44.686Z,5.67
2024-02-28T09:08:14.460Z,5.60
2024-02-28T09:10:43.183Z,5.66
2024-02-28T09:13:13.381Z,5.68
2024-02-28T09:15:42.847Z,5.74
2024-02-28T09:18:11.107Z,5.85
2024-02-28T09:20:38.972Z,5.86
2024-02-28T09:23:08.021Z,5.93
2024-02-28T09:25:36.755Z,5.92
2024-02-28T09:28:05.039Z,6.02
2024-02-28T09:30:40.158Z,6.03
2024-02-28T09:33:15.407Z,6.04
2024-02-28T09:35:43.842Z,6.04
2024-02-28T09:38:12.657Z,6.11
2024-02-28T09:40:40.751Z,6.19
2024-02-28T09:43:18.180Z,6.25
2024-02-28T09:45:48.788Z,6.29
2024-02-28T09:48:19.056Z,6.37
2024-02-28T09:50:48.017Z,6.47
2024-02-28T09:53:15.974Z,6.60
2024-02-28T09:55:44.711Z,6.66
2024-02-28T09:58:13.414Z,6.63
2024-02-28T10:00:45.204Z,6.62
2024-02-28T10:03:15.433Z,6.57
2024-02-28T10:05:45.461Z,6.66
2024-02-28T10:08:14.651Z,6.79
2024-02-28T10:10:48.267Z,6.86
2024-02-28T10:13:17.733Z,6.88
2024-02-28T10:15:45.893Z,6.86
2024-02-28T10:18:13.875Z,6.90
2024-02-28T10:20:41.709Z,7.04
2024-02-28T10:23:11.075Z,7.13
2024-02-28T10:25:51.916Z,7.21
2024-02-28T10:28:24.447Z,7.31
2024-02-28T10:30:53.058Z,7.45
2024-02-28T10:33:21.087Z,7.51
2024-02-28T10:35:54.713Z,7.59
2024-02-28T10:38:25.353Z,7.63
2024-02-28T10:40:54.892Z,7.68
2024-02-28T10:43:23.468Z,7.62
2024-02-28T10:46:13.414Z,7.63
2024-02-28T10:48:41.484Z,7.70
2024-02-28T10:51:12.263Z,7.81
2024-02-28T10:53:44.359Z,7.85
2024-02-28T10:56:13.620Z,7.91
2024-02-28T10:58:51.919Z,8.01
2024-02-28T11:01:21.152Z,8.11
2024-02-28T11:03:51.412Z,8.24
2024-02-28T11:06:21.797Z,8.26
2024-02-28T11:08:55.280Z,8.33
2024-02-28T11:11:24.638Z,8.40
2024-02-28T11:13:56.552Z,8.43
2024-02-28T11:16:31.732Z,8.43
2024-02-28T11:19:00.228Z,8.42
2024-02-28T11:21:29.432Z,8.55
2024-02-28T11:24:01.410Z,8.46
2024-02-28T11:26:29.973Z,8.47
2024-02-28T11:28:58.050Z,8.46
2024-02-28T11:31:25.995Z,8.43
2024-02-28T11:33:53.959Z,8.46
2024-02-28T11:36:22.675Z,8.46
2024-02-28T11:38:51.265Z,8.48
2024-02-28T11:41:29.838Z,8.57
2024-02-28T11:43:57.764Z,8.59
2024-02-28T11:46:26.175Z,8.52
2024-02-28T11:48:54.869Z,8.59
2024-02-28T11:51:22.795Z,8.70
2024-02-28T11:53:50.696Z,8.65
2024-02-28T11:56:22.212Z,8.76
2024-02-28T11:58:55.321Z,8.76
2024-02-28T12:01:41.082Z,8.75
2024-02-28T12:04:09.615Z,8.81
2024-02-28T12:06:39.418Z,8.89
2024-02-28T12:09:10.064Z,8.92
2024-02-28T12:11:38.696Z,8.86
2024-02-28T12:14:10.395Z,8.71
2024-02-28T12:16:39.592Z,8.73
2024-02-28T12:19:10.976Z,8.79
2024-02-28T12:21:39.193Z,8.91
2024-02-28T12:24:10.432Z,9.04
2024-02-28T12:26:38.568Z,9.13
2024-02-28T12:29:08.196Z,9.11
2024-02-28T12:31:37.056Z,9.12
2024-02-28T12:34:05.960Z,9.07
2024-02-28T12:36:35.290Z,8.90
2024-02-28T12:39:03.674Z,8.95
2024-02-28T12:41:31.596Z,9.02
2024-02-28T12:43:59.532Z,9.12
2024-02-28T12:46:28.844Z,9.18
2024-02-28T12:48:56.812Z,9.22
2024-02-28T12:51:39.380Z,9.25
2024-02-28T12:54:08.804Z,9.30
2024-02-28T12:56:37.604Z,9.47
2024-02-28T12:59:05.552Z,9.63
2024-02-28T13:01:35.651Z,9.68
2024-02-28T13:04:03.823Z,9.70
2024-02-28T13:06:32.139Z,9.84
2024-02-28T13:09:00.126Z,10.02
2024-02-28T13:11:28.319Z,10.07
2024-02-28T13:13:56.230Z,10.02
2024-02-28T13:16:24.856Z,10.13
2024-02-28T13:18:54.188Z,10.13
2024-02-28T13:21:22.330Z,10.05
2024-02-28T13:23:51.428Z,10.03
2024-02-28T13:26:20.198Z,10.02
2024-02-28T13:28:50.585Z,10.05
2024-02-28T13:31:20.872Z,9.97
2024-02-28T13:33:49.997Z,9.99
2024-02-28T13:36:19.919Z,10.08
2024-02-28T13:38:48.019Z,10.09
2024-02-28T13:41:17.593Z,10.12
2024-02-28T13:43:45.694Z,10.10
2024-02-28T13:46:15.579Z,10.21
2024-02-28T13:48:44.083Z,10.29
2024-02-28T13:51:13.023Z,10.33
2024-02-28T13:53:42.251Z,10.22
2024-02-28T13:56:10.236Z,10.11
2024-02-28T13:58:43.015Z,9.99
2024-02-28T14:01:17.241Z,9.89
2024-02-28T14:03:45.231Z,9.79
2024-02-28T14:06:13.124Z,9.67
2024-02-28T14:08:44.072Z,9.59
2024-02-28T14:11:12.406Z,9.48
2024-02-28T14:13:41.560Z,9.40
2024-02-28T14:16:09.889Z,9.37
2024-02-28T14:18:37.875Z,9.29
2024-02-28T14:21:08.244Z,9.18
2024-02-28T14:23:36.670Z,9.13
2024-02-28T14:26:06.088Z,9.06
2024-02-28T14:28:34.089Z,9.00
2024-02-28T14:31:03.043Z,8.97
2024-02-28T14:33:31.252Z,8.91
2024-02-28T14:36:01.688Z,8.84
2024-02-28T14:38:29.614Z,8.90
2024-02-28T14:40:58.297Z,8.91
2024-02-28T14:43:31.026Z,8.95
2024-02-28T14:45:59.423Z,8.92
2024-02-28T14:48:27.285Z,8.95
2024-02-28T14:50:55.508Z,8.93
2024-02-28T14:53:24.631Z,8.92
2024-02-28T14:55:52.758Z,8.92
2024-02-28T14:58:20.703Z,8.89
2024-02-28T15:00:50.617Z,8.84
2024-02-28T15:03:18.692Z,8.80
2024-02-28T15:05:46.842Z,8.76
2024-02-28T15:08:14.755Z,8.70
2024-02-28T15:10:42.638Z,8.64
2024-02-28T15:13:13.325Z,8.60
2024-02-28T15:15:42.868Z,8.54
2024-02-28T15:18:13.367Z,8.53
2024-02-28T15:20:41.538Z,8.49
2024-02-28T15:23:09.704Z,8.44
2024-02-28T15:25:37.829Z,8.41
2024-02-28T15:28:06.663Z,8.35
2024-02-28T15:30:34.782Z,8.29
2024-02-28T15:33:02.862Z,8.27
2024-02-28T15:35:32.792Z,8.24
2024-02-28T15:38:00.767Z,8.21
2024-02-28T15:40:29.378Z,8.15
2024-02-28T15:42:59.479Z,8.15
2024-02-28T15:45:27.614Z,8.08
2024-02-28T15:47:55.598Z,8.02
2024-02-28T15:50:24.426Z,8.00
2024-02-28T15:52:54.862Z,7.98
2024-02-28T15:55:23.915Z,7.91
2024-02-28T15:57:52.130Z,7.87
2024-02-28T16:00:21.063Z,7.80
2024-02-28T16:02:49.096Z,7.73
2024-02-28T16:05:17.273Z,7.67
2024-02-28T16:07:46.891Z,7.63
2024-02-28T16:10:16.592Z,7.62
2024-02-28T16:12:44.638Z,7.58
2024-02-28T16:15:12.932Z,7.54
2024-02-28T16:17:41.459Z,7.50
2024-02-28T16:20:10.181Z,7.49
2024-02-28T16:22:38.043Z,7.47
2024-02-28T16:25:07.615Z,7.45
2024-02-28T16:27:37.405Z,7.45
2024-02-28T16:30:07.715Z,7.39
2024-02-28T16:32:36.887Z,7.34
2024-02-28T16:35:05.586Z,7.26
2024-02-28T16:37:33.428Z,7.20
2024-02-28T16:40:01.464Z,7.13
2024-02-28T16:42:31.586Z,7.06
2024-02-28T16:45:00.908Z,6.98
2024-02-28T16:47:29.658Z,6.87
2024-02-28T16:49:58.178Z,6.81
2024-02-28T16:52:27.201Z,6.74
2024-02-28T16:54:55.118Z,6.68
2024-02-28T16:57:23.094Z,6.62
2024-02-28T16:59:51.140Z,6.53
2024-02-28T17:02:20.362Z,6.52
2024-02-28T17:04:48.190Z,6.50
2024-02-28T17:07:20.504Z,6.43
2024-02-28T17:09:48.566Z,6.38
2024-02-28T17:12:16.793Z,6.34
2024-02-28T17:14:44.801Z,6.30
2024-02-28T17:17:13.477Z,6.24
2024-02-28T17:19:42.831Z,6.20
2024-02-28T17:22:10.740Z,6.15
2024-02-28T17:24:38.636Z,6.11
2024-02-28T17:27:08.545Z,6.05
2024-02-28T17:29:37.068Z,6.00
2024-02-28T17:32:05.801Z,5.91
2024-02-28T17:34:34.515Z,5.84
2024-02-28T17:37:04.127Z,5.81
2024-02-28T17:39:32.058Z,5.77
2024-02-28T17:42:00.172Z,5.72
2024-02-28T17:44:28.350Z,5.69
2024-02-28T17:46:56.619Z,5.70
2024-02-28T17:49:25.893Z,5.69
2024-02-28T17:51:54.855Z,5.69
2024-02-28T17:54:25.401Z,5.70
2024-02-28T17:56:54.757Z,5.72
2024-02-28T17:59:22.703Z,5.72
2024-02-28T18:01:50.961Z,5.71
2024-02-28T18:04:18.888Z,5.73
2024-02-28T18:06:46.849Z,5.75
2024-02-28T18:09:19.249Z,5.76
2024-02-28T18:11:50.143Z,5.77
2024-02-28T18:14:20.723Z,5.81
2024-02-28T18:16:48.629Z,5.77
2024-02-28T18:19:18.802Z,5.83
2024-02-28T18:21:47.032Z,5.85
2024-02-28T18:24:15.528Z,5.85
2024-02-28T18:26:44.148Z,5.86
2024-02-28T18:29:13.643Z,5.86
2024-02-28T18:31:41.540Z,5.87
2024-02-28T18:34:09.555Z,5.86
2024-02-28T18:36:37.907Z,5.84
2024-02-28T18:39:05.814Z,5.78
2024-02-28T18:41:33.652Z,5.75
2024-02-28T18:44:01.628Z,5.69
2024-02-28T18:46:31.519Z,5.60
2024-02-28T18:48:59.634Z,5.55
2024-02-28T18:51:28.342Z,5.43
2024-02-28T18:53:56.434Z,5.34
2024-02-28T18:56:24.706Z,5.25
2024-02-28T18:58:52.558Z,5.16
2024-02-28T19:01:21.112Z,5.03
2024-02-28T19:03:50.983Z,4.91
2024-02-28T19:06:19.257Z,4.82
2024-02-28T19:08:47.423Z,4.74
2024-02-28T19:11:15.389Z,4.65
2024-02-28T19:13:43.749Z,4.57
2024-02-28T19:16:11.692Z,4.50
2024-02-28T19:18:41.204Z,4.45
2024-02-28T19:21:10.636Z,4.42
2024-02-28T19:23:41.699Z,4.37
2024-02-28T19:26:09.802Z,4.31
2024-02-28T19:28:37.624Z,4.26
2024-02-28T19:31:05.872Z,4.22
2024-02-28T19:33:37.078Z,4.16
2024-02-28T19:36:06.227Z,4.11
2024-02-28T19:38:35.960Z,4.09
2024-02-28T19:41:05.076Z,4.08
2024-02-28T19:43:33.448Z,4.08
2024-02-28T19:46:01.914Z,4.08
2024-02-28T19:48:29.987Z,4.10
2024-02-28T19:50:57.921Z,4.10
2024-02-28T19:53:26.033Z,4.12
2024-02-28T19:55:55.342Z,4.12
2024-02-28T19:58:23.229Z,4.15
2024-02-28T20:00:51.326Z,4.16
2024-02-28T20:03:19.901Z,4.20
2024-02-28T20:05:48.178Z,4.21
2024-02-28T20:08:16.186Z,4.21
2024-02-28T20:10:44.217Z,4.23
2024-02-28T20:13:14.847Z,4.27
2024-02-28T20:15:43.120Z,4.29
2024-02-28T20:18:11.300Z,4.34
2024-02-28T20:20:39.498Z,4.35
2024-02-28T20:23:07.316Z,4.38
2024-02-28T20:25:35.363Z,4.43
2024-02-28T20:28:05.513Z,4.49
2024-02-28T20:30:35.216Z,4.57
2024-02-28T20:33:03.406Z,4.65
2024-02-28T20:35:33.033Z,4.72
2024-02-28T20:38:01.226Z,4.77
2024-02-28T20:40:29.698Z,4.80
2024-02-28T20:42:58.528Z,4.82
2024-02-28T20:45:26.634Z,4.83
2024-02-28T20:47:57.613Z,4.84
2024-02-28T20:50:26.226Z,4.79
2024-02-28T20:52:54.344Z,4.72
2024-02-28T20:55:26.190Z,4.65
2024-02-28T20:57:54.145Z,4.58
2024-02-28T21:00:22.790Z,4.53
2024-02-28T21:02:51.158Z,4.48
2024-02-28T21:05:21.033Z,4.43
2024-02-28T21:07:53.254Z,4.37
2024-02-28T21:10:22.382Z,4.31
2024-02-28T21:12:50.488Z,4.27
2024-02-28T21:15:18.638Z,4.23
2024-02-28T21:17:46.629Z,4.21
2024-02-28T21:20:14.834Z,4.19
2024-02-28T21:22:44.065Z,4.14
2024-02-28T21:25:12.377Z,4.14
2024-02-28T21:27:40.581Z,4.12
2024-02-28T21:30:10.672Z,4.11
2024-02-28T21:32:40.397Z,4.09
2024-02-28T21:35:09.660Z,4.08
2024-02-28T21:37:37.719Z,4.08
2024-02-28T21:40:08.850Z,4.11
2024-02-28T21:42:36.975Z,4.14
2024-02-28T21:45:05.540Z,4.21
2024-02-28T21:47:33.472Z,4.29
2024-02-28T21:50:01.386Z,4.37
2024-02-28T21:52:29.386Z,4.48
2024-02-28T21:54:58.251Z,4.62
2024-02-28T21:57:27.620Z,4.74
2024-02-28T21:59:55.451Z,4.86
2024-02-28T22:02:23.343Z,4.98
2024-02-28T22:04:51.222Z,5.12
2024-02-28T22:07:19.107Z,5.24
2024-02-28T22:09:47.005Z,5.34
2024-02-28T22:12:15.241Z,5.44
2024-02-28T22:14:44.519Z,5.53
2024-02-28T22:17:12.422Z,5.63
2024-02-28T22:19:40.358Z,5.70
2024-02-28T22:22:08.737Z,5.79
2024-02-28T22:24:36.720Z,5.88
2024-02-28T22:27:05.908Z,5.93
2024-02-28T22:29:34.432Z,6.02
2024-02-28T22:32:03.880Z,6.09
2024-02-28T22:34:31.719Z,6.15
2024-02-28T22:36:59.609Z,6.21
2024-02-28T22:39:28.432Z,6.27
2024-02-28T22:41:57.946Z,6.33
2024-02-28T22:44:25.883Z,6.37
2024-02-28T22:46:54.097Z,6.40
2024-02-28T22:49:23.411Z,6.46
2024-02-28T22:51:51.556Z,6.48
2024-02-28T22:54:19.580Z,6.47
2024-02-28T22:56:48.610Z,6.47
2024-02-28T22:59:18.320Z,6.43
2024-02-28T23:01:47.156Z,6.43
2024-02-28T23:04:16.914Z,6.42
2024-02-28T23:06:46.157Z,6.38
2024-02-28T23:09:15.155Z,6.34
2024-02-28T23:11:43.332Z,6.35
2024-02-28T23:14:12.779Z,6.33
2024-02-28T23:16:40.829Z,6.27
2024-02-28T23:19:09.365Z,6.28
2024-02-28T23:21:38.812Z,6.19
2024-02-28T23:24:09.037Z,6.10
2024-02-28T23:26:37.483Z,6.03
2024-02-28T23:29:05.555Z,5.95
2024-02-28T23:31:33.452Z,5.87
2024-02-28T23:34:01.277Z,5.79
2024-02-28T23:36:29.206Z,5.70
2024-02-28T23:38:57.068Z,5.61
2024-02-28T23:41:26.667Z,5.49
2024-02-28T23:43:57.467Z,5.43
2024-02-28T23:46:26.341Z,5.33
2024-02-28T23:48:54.176Z,5.23
2024-02-28T23:51:22.100Z,5.15
2024-02-28T23:53:50.067Z,5.07
2024-02-28T23:56:17.963Z,4.98
2024-02-28T23:58:47.220Z,4.91
